Time;durP1;ratioP1;P1;durP2;ratioP2;P2;SDS_P1;SDS_P2;PMS_P1;PMS_P2;Temp;Humidity;BMP_temperature;BMP_pressure;BME280_temperature;BME280_humidity;BME280_pressure;Samples;Min_cycle;Max_cycle;Signal;HPM_P1;HPM_P2
2022/10/11 00:00:28;;;;;;;103.18;78.78;;;14.80;99.90;;;;;;5051076;28;20041;-74
2022/10/11 00:02:55;;;;;;;105.20;79.95;;;14.80;99.90;;;;;;5051878;28;20076;-74
2022/10/11 00:05:22;;;;;;;98.32;77.03;;;14.80;99.90;;;;;;5052542;28;20124;-74
2022/10/11 00:07:49;;;;;;;100.32;80.80;;;14.90;99.90;;;;;;5052594;28;20041;-73
2022/10/11 00:10:17;;;;;;;104.47;80.25;;;14.90;99.90;;;;;;5052171;28;20037;-73
2022/10/11 00:12:44;;;;;;;93.22;73.97;;;14.90;99.90;;;;;;5032601;28;20052;-73
2022/10/11 00:15:13;;;;;;;93.80;77.05;;;14.90;99.90;;;;;;5031164;28;20144;-73
2022/10/11 00:17:41;;;;;;;91.93;72.85;;;14.90;99.90;;;;;;5032679;28;20125;-74
2022/10/11 00:20:09;;;;;;;88.72;72.68;;;14.90;99.90;;;;;;5042642;28;20128;-74
2022/10/11 00:22:38;;;;;;;92.30;75.55;;;14.90;99.90;;;;;;5055140;28;20065;-74
2022/10/11 00:25:07;;;;;;;90.47;74.50;;;14.90;99.90;;;;;;5055838;28;20044;-74
2022/10/11 00:27:35;;;;;;;89.07;73.22;;;14.90;99.90;;;;;;5055981;28;20077;-74
2022/10/11 00:30:04;;;;;;;86.43;70.07;;;14.90;99.90;;;;;;5055894;28;20408;-74
2022/10/11 00:32:33;;;;;;;78.88;66.63;;;15.00;99.90;;;;;;5055812;28;20048;-74
2022/10/11 00:35:05;;;;;;;92.40;73.20;;;15.00;99.90;;;;;;5056023;28;20052;-74
2022/10/11 00:37:33;;;;;;;82.25;70.78;;;14.90;99.90;;;;;;5056120;28;20068;-74
2022/10/11 00:40:00;;;;;;;87.53;68.47;;;14.90;99.90;;;;;;5054668;28;20110;-73
2022/10/11 00:42:27;;;;;;;81.85;69.18;;;14.90;99.90;;;;;;5054846;28;20500;-73
2022/10/11 00:45:33;;;;;;;87.32;71.03;;;14.90;99.90;;;;;;5055338;28;20116;-74
2022/10/11 00:48:04;;;;;;;85.45;69.75;;;14.90;99.90;;;;;;5053379;28;20049;-74
2022/10/11 00:50:35;;;;;;;80.13;66.22;;;15.00;99.90;;;;;;5054015;28;20044;-73
2022/10/11 00:53:06;;;;;;;80.45;69.07;;;15.00;99.90;;;;;;5055791;28;20049;-73
2022/10/11 00:55:39;;;;;;;80.18;68.63;;;15.00;99.90;;;;;;5042761;28;20103;-74
2022/10/11 00:58:07;;;;;;;82.43;66.93;;;15.00;99.90;;;;;;5053841;28;20127;-74
2022/10/11 01:00:35;;;;;;;77.57;65.45;;;15.00;99.90;;;;;;5055708;28;20063;-74
2022/10/11 01:03:04;;;;;;;82.07;66.90;;;15.00;99.90;;;;;;5055449;28;20040;-73
2022/10/11 01:05:33;;;;;;;89.07;70.95;;;15.00;99.90;;;;;;5034374;28;20080;-74
2022/10/11 01:08:00;;;;;;;94.68;75.72;;;15.00;99.90;;;;;;5035566;28;20045;-74
2022/10/11 01:10:29;;;;;;;96.93;74.95;;;15.00;99.90;;;;;;5035478;28;20041;-74
2022/10/11 01:13:08;;;;;;;101.28;78.40;;;15.00;99.90;;;;;;5038656;28;20079;-73
2022/10/11 01:15:42;;;;;;;93.65;74.45;;;14.90;99.90;;;;;;5053971;28;20140;-74
2022/10/11 01:18:17;;;;;;;84.60;72.85;;;14.90;99.90;;;;;;5055512;28;20064;-74
2022/10/11 01:20:56;;;;;;;84.83;71.13;;;15.00;99.90;;;;;;5055844;28;20064;-74
2022/10/11 01:23:58;;;;;;;89.13;70.93;;;14.90;99.90;;;;;;5055146;28;20041;-74
2022/10/11 01:26:55;;;;;;;82.43;68.38;;;14.90;99.90;;;;;;5030963;28;20495;-73
2022/10/11 01:29:34;;;;;;;82.63;67.10;;;14.90;99.90;;;;;;5054759;28;20450;-74
2022/10/11 01:32:14;;;;;;;81.20;68.90;;;14.90;99.90;;;;;;5054001;28;20488;-74
2022/10/11 01:34:45;;;;;;;86.10;69.10;;;14.90;99.90;;;;;;5054957;28;20474;-74
2022/10/11 01:37:17;;;;;;;85.55;69.50;;;14.90;99.90;;;;;;5054953;28;20045;-74
2022/10/11 01:39:50;;;;;;;88.40;71.93;;;14.90;99.90;;;;;;5055454;28;20045;-74
2022/10/11 01:42:19;;;;;;;90.15;71.90;;;14.90;99.90;;;;;;5054787;28;20048;-73
2022/10/11 01:44:49;;;;;;;84.82;72.18;;;14.90;99.90;;;;;;5052989;28;20500;-73
2022/10/11 01:47:21;;;;;;;87.05;72.10;;;15.00;99.90;;;;;;5050342;28;20092;-73
2022/10/11 01:49:54;;;;;;;89.93;69.40;;;15.00;99.90;;;;;;5053923;28;20067;-74
2022/10/11 01:52:21;;;;;;;83.20;69.13;;;14.90;99.90;;;;;;5053034;28;20095;-73
2022/10/11 01:55:08;;;;;;;82.53;67.45;;;15.00;99.90;;;;;;5053632;28;20076;-73
2022/10/11 01:57:48;;;;;;;;;;;15.00;99.90;;;;;;5054612;28;20052;-74
2022/10/11 02:00:18;;;;;;;75.03;65.10;;;15.00;99.90;;;;;;5053818;28;19920;-73
2022/10/11 02:02:59;;;;;;;81.30;66.22;;;14.90;99.90;;;;;;5053819;28;20049;-73
2022/10/11 02:05:35;;;;;;;79.00;66.30;;;14.90;99.90;;;;;;5034281;28;20091;-73
2022/10/11 02:08:08;;;;;;;78.57;65.35;;;14.90;99.90;;;;;;5034159;28;20049;-74
2022/10/11 02:10:42;;;;;;;77.75;64.10;;;14.90;99.90;;;;;;5033014;28;20100;-74
2022/10/11 02:13:16;;;;;;;81.15;66.38;;;15.00;99.90;;;;;;5036883;28;20037;-73
2022/10/11 02:15:47;;;;;;;78.85;65.60;;;15.00;99.90;;;;;;5053857;28;20045;-74
2022/10/11 02:18:20;;;;;;;74.97;65.50;;;15.00;99.90;;;;;;5043072;28;20497;-74
2022/10/11 02:20:50;;;;;;;82.32;68.65;;;15.00;99.90;;;;;;5050255;28;20048;-74
2022/10/11 02:23:22;;;;;;;84.90;70.85;;;15.00;99.90;;;;;;5052991;28;20041;-73
2022/10/11 02:25:52;;;;;;;79.63;67.70;;;15.00;99.90;;;;;;5054140;28;20045;-74
2022/10/11 02:28:25;;;;;;;83.50;69.20;;;15.00;99.90;;;;;;5053697;28;20470;-74
2022/10/11 02:30:53;;;;;;;82.70;69.45;;;15.10;99.90;;;;;;5053272;28;20120;-74
2022/10/11 02:33:26;;;;;;;79.60;65.72;;;15.10;99.90;;;;;;5043262;28;20493;-74
2022/10/11 02:35:59;;;;;;;86.05;70.72;;;15.10;99.90;;;;;;5032634;28;20164;-73
2022/10/11 02:38:32;;;;;;;90.50;72.65;;;15.00;99.90;;;;;;5034047;28;20045;-74
2022/10/11 02:41:11;;;;;;;82.82;70.70;;;15.00;99.90;;;;;;5049170;28;20091;-74
2022/10/11 02:43:43;;;;;;;80.63;65.53;;;15.10;99.90;;;;;;5053353;28;20559;-73
2022/10/11 02:46:11;;;;;;;76.78;64.15;;;15.10;99.90;;;;;;5036568;28;20045;-73
2022/10/11 02:48:39;;;;;;;77.28;64.55;;;15.10;99.90;;;;;;5048243;28;20044;-73
2022/10/11 02:51:13;;;;;;;77.38;66.70;;;15.10;99.90;;;;;;5052827;28;20037;-72
2022/10/11 02:53:40;;;;;;;84.68;67.85;;;15.10;99.90;;;;;;5047105;28;20045;-73
2022/10/11 02:56:08;;;;;;;74.88;66.63;;;15.10;99.90;;;;;;5053290;28;20049;-73
2022/10/11 02:58:35;;;;;;;80.90;68.53;;;15.10;99.90;;;;;;5053546;28;20056;-73
2022/10/11 03:01:03;;;;;;;86.03;70.25;;;15.10;99.90;;;;;;5050746;28;20045;-73
2022/10/11 03:03:30;;;;;;;77.60;65.50;;;15.10;99.90;;;;;;5050487;28;20047;-73
2022/10/11 03:06:04;;;;;;;80.40;66.22;;;15.10;99.90;;;;;;5051320;28;20090;-73
2022/10/11 03:08:31;;;;;;;81.10;66.05;;;15.10;99.90;;;;;;5046032;28;20041;-73
2022/10/11 03:10:58;;;;;;;75.60;65.03;;;15.20;99.90;;;;;;5053628;28;20091;-73
2022/10/11 03:13:26;;;;;;;74.97;63.58;;;15.20;99.90;;;;;;5044732;28;20048;-73
2022/10/11 03:15:55;;;;;;;78.32;64.68;;;15.20;99.90;;;;;;5051405;28;20115;-73
2022/10/11 03:18:22;;;;;;;78.57;64.40;;;15.10;99.90;;;;;;5052791;28;20095;-73
2022/10/11 03:20:49;;;;;;;79.55;66.45;;;15.10;99.90;;;;;;5052986;28;20037;-74
2022/10/11 03:23:18;;;;;;;80.75;66.40;;;15.10;99.90;;;;;;5051887;28;20045;-73
2022/10/11 03:25:45;;;;;;;83.60;69.82;;;15.10;99.90;;;;;;5051593;28;20455;-73
2022/10/11 03:28:12;;;;;;;87.13;69.25;;;15.10;99.90;;;;;;5052970;28;20041;-73
2022/10/11 03:30:40;;;;;;;82.60;68.07;;;15.10;99.90;;;;;;5052636;28;20098;-73
2022/10/11 03:33:07;;;;;;;78.95;67.40;;;15.10;99.90;;;;;;5052848;28;20068;-73
2022/10/11 03:35:34;;;;;;;80.78;66.78;;;15.10;99.90;;;;;;5052629;28;20048;-73
2022/10/11 03:38:02;;;;;;;80.07;67.95;;;15.20;99.90;;;;;;5053357;28;20459;-73
2022/10/11 03:40:30;;;;;;;80.93;67.90;;;15.20;99.90;;;;;;5050660;28;20044;-73
2022/10/11 03:42:58;;;;;;;79.30;67.50;;;15.20;99.90;;;;;;5052620;28;20098;-72
2022/10/11 03:45:25;;;;;;;79.28;65.85;;;15.20;99.90;;;;;;5068087;28;20071;-73
2022/10/11 03:47:52;;;;;;;78.03;65.95;;;15.20;99.90;;;;;;5049058;28;20110;-73
2022/10/11 03:50:20;;;;;;;81.40;67.53;;;15.20;99.90;;;;;;5052390;28;20083;-73
2022/10/11 03:52:47;;;;;;;77.15;68.55;;;15.30;99.90;;;;;;5052139;28;20048;-73
2022/10/11 03:55:14;;;;;;;79.00;69.00;;;15.30;99.90;;;;;;5053255;28;20079;-74
2022/10/11 03:57:43;;;;;;;80.20;68.93;;;15.20;99.90;;;;;;5055171;28;20056;-73
2022/10/11 04:00:11;;;;;;;80.43;68.22;;;15.20;99.90;;;;;;5056123;28;20087;-74
2022/10/11 04:02:38;;;;;;;80.43;67.85;;;15.20;99.90;;;;;;5056170;28;20451;-73
2022/10/11 04:05:06;;;;;;;82.65;69.78;;;15.20;99.90;;;;;;5048189;28;20053;-74
2022/10/11 04:07:34;;;;;;;82.93;71.45;;;15.20;99.90;;;;;;5036577;28;20120;-73
2022/10/11 04:10:01;;;;;;;84.20;70.88;;;15.20;99.90;;;;;;5036630;28;20049;-74
2022/10/11 04:12:29;;;;;;;87.10;72.05;;;15.10;99.90;;;;;;5035594;28;20046;-71
2022/10/11 04:14:57;;;;;;;85.90;70.15;;;15.10;99.90;;;;;;5048081;28;20099;-71
2022/10/11 04:17:25;;;;;;;85.35;68.32;;;15.10;99.90;;;;;;5053420;28;20112;-71
2022/10/11 04:19:52;;;;;;;80.50;69.95;;;15.20;99.90;;;;;;5035137;28;20045;-71
2022/10/11 04:22:19;;;;;;;92.95;72.03;;;15.20;99.90;;;;;;5034878;28;20084;-71
2022/10/11 04:24:46;;;;;;;92.05;72.55;;;15.20;99.90;;;;;;5035843;28;20567;-71
2022/10/11 04:27:14;;;;;;;95.28;74.68;;;15.20;99.90;;;;;;5038869;28;20530;-71
2022/10/11 04:29:41;;;;;;;88.55;72.20;;;15.20;99.90;;;;;;5055855;28;20047;-71
2022/10/11 04:32:10;;;;;;;86.22;72.95;;;15.20;99.90;;;;;;5047291;28;20381;-71
2022/10/11 04:34:37;;;;;;;82.53;68.22;;;15.20;99.90;;;;;;5055492;28;20443;-71
2022/10/11 04:37:05;;;;;;;79.43;69.68;;;15.20;99.90;;;;;;5037592;28;20558;-71
2022/10/11 04:39:32;;;;;;;84.43;72.07;;;15.20;99.90;;;;;;5050749;28;20099;-71
2022/10/11 04:41:59;;;;;;;85.40;70.28;;;15.20;99.90;;;;;;5039698;28;20485;-71
2022/10/11 04:44:27;;;;;;;83.82;71.55;;;15.20;99.90;;;;;;5034431;28;20055;-71
2022/10/11 04:46:54;;;;;;;93.53;74.57;;;15.20;99.90;;;;;;5035593;28;20120;-71
2022/10/11 04:49:23;;;;;;;90.22;73.13;;;15.20;99.90;;;;;;5051792;28;20048;-70
2022/10/11 04:51:51;;;;;;;92.30;76.93;;;15.10;99.90;;;;;;5035659;28;20042;-70
2022/10/11 04:54:18;;;;;;;89.35;73.18;;;15.20;99.90;;;;;;5053458;28;20040;-70
2022/10/11 04:56:45;;;;;;;89.15;76.05;;;15.20;99.90;;;;;;5054713;28;20573;-70
2022/10/11 04:59:13;;;;;;;93.30;77.97;;;15.20;99.90;;;;;;5052296;28;20058;-70
2022/10/11 05:01:40;;;;;;;90.90;74.75;;;15.20;99.90;;;;;;5054521;28;20037;-70
2022/10/11 05:04:07;;;;;;;98.05;78.43;;;15.20;99.90;;;;;;5054555;28;20094;-71
2022/10/11 05:06:36;;;;;;;88.32;73.28;;;15.20;99.90;;;;;;5033869;28;20115;-71
2022/10/11 05:09:04;;;;;;;92.75;76.72;;;15.20;99.90;;;;;;5037011;28;20064;-71
2022/10/11 05:11:31;;;;;;;88.57;74.22;;;15.20;99.90;;;;;;5054576;28;20036;-71
2022/10/11 05:13:58;;;;;;;87.55;74.25;;;15.20;99.90;;;;;;5054889;28;20037;-70
2022/10/11 05:16:26;;;;;;;101.82;77.07;;;15.30;99.90;;;;;;5051371;28;20114;-71
2022/10/11 05:18:53;;;;;;;132.73;81.05;;;15.30;99.90;;;;;;5054859;28;20044;-71
2022/10/11 05:21:23;;;;;;;96.78;78.07;;;15.30;99.90;;;;;;5044019;28;20137;-71
2022/10/11 05:23:54;;;;;;;91.32;77.57;;;15.30;99.90;;;;;;5034515;28;20037;-71
2022/10/11 05:26:22;;;;;;;95.68;80.38;;;15.40;99.90;;;;;;5033430;28;20053;-71
2022/10/11 05:28:50;;;;;;;105.22;84.05;;;15.30;99.90;;;;;;5048226;28;20116;-71
2022/10/11 05:31:17;;;;;;;108.53;83.78;;;15.30;99.90;;;;;;5054042;28;20049;-70
2022/10/11 05:33:45;;;;;;;98.78;82.35;;;15.40;99.90;;;;;;5047301;28;20505;-73
2022/10/11 05:36:13;;;;;;;102.95;79.65;;;15.40;99.90;;;;;;5034471;28;20123;-72
2022/10/11 05:38:40;;;;;;;99.95;80.03;;;15.40;99.90;;;;;;5034592;28;20060;-71
2022/10/11 05:41:10;;;;;;;111.20;80.72;;;15.40;99.90;;;;;;5034484;28;20046;-71
2022/10/11 05:43:38;;;;;;;98.32;82.40;;;15.50;99.90;;;;;;5033217;28;20471;-71
2022/10/11 05:46:05;;;;;;;104.55;83.63;;;15.50;99.90;;;;;;5034504;28;20509;-71
2022/10/11 05:48:33;;;;;;;104.55;83.35;;;15.50;99.90;;;;;;5046274;28;20045;-73
2022/10/11 05:51:01;;;;;;;100.53;81.78;;;15.50;99.90;;;;;;5038664;28;20547;-71
2022/10/11 05:53:29;;;;;;;98.18;82.00;;;15.40;99.90;;;;;;5039328;28;20409;-71
2022/10/11 05:55:57;;;;;;;102.90;85.72;;;15.40;99.90;;;;;;5054630;28;20451;-71
2022/10/11 05:58:26;;;;;;;106.03;84.18;;;15.40;99.90;;;;;;5054098;28;20053;-71
2022/10/11 06:00:55;;;;;;;103.93;82.25;;;15.40;99.90;;;;;;5054296;28;20079;-71
2022/10/11 06:03:23;;;;;;;99.28;81.75;;;15.50;99.90;;;;;;5053899;28;20053;-71
2022/10/11 06:05:50;;;;;;;101.47;83.35;;;15.50;99.90;;;;;;5053843;28;20049;-71
2022/10/11 06:08:17;;;;;;;100.07;83.72;;;15.50;99.90;;;;;;5053717;28;20049;-73
2022/10/11 06:10:45;;;;;;;102.47;83.78;;;15.50;99.90;;;;;;5051302;28;20033;-72
2022/10/11 06:13:12;;;;;;;101.32;84.45;;;15.50;99.90;;;;;;5051677;28;20098;-71
2022/10/11 06:15:41;;;;;;;121.65;92.57;;;15.50;99.90;;;;;;5052065;28;20063;-71
2022/10/11 06:18:08;;;;;;;113.93;90.18;;;15.40;99.90;;;;;;5035322;28;20121;-71
2022/10/11 06:20:36;;;;;;;113.68;91.50;;;15.50;99.90;;;;;;5034338;28;20141;-71
2022/10/11 06:23:04;;;;;;;122.05;96.70;;;15.50;99.90;;;;;;5034468;28;20064;-71
2022/10/11 06:25:31;;;;;;;121.18;100.80;;;15.50;99.90;;;;;;5034069;28;20446;-71
2022/10/11 06:27:58;;;;;;;114.95;90.30;;;15.50;99.90;;;;;;5033496;28;20045;-72
2022/10/11 06:30:26;;;;;;;112.13;90.43;;;15.50;99.90;;;;;;5048658;28;20053;-71
2022/10/11 06:32:54;;;;;;;101.70;85.65;;;15.50;99.90;;;;;;5052281;28;20053;-71
2022/10/11 06:35:22;;;;;;;100.03;82.20;;;15.60;99.90;;;;;;5053413;28;20048;-72
2022/10/11 06:37:50;;;;;;;103.47;82.75;;;15.60;99.90;;;;;;5053637;28;20041;-71
2022/10/11 06:40:17;;;;;;;99.60;83.40;;;15.70;99.90;;;;;;5043215;28;20508;-73
2022/10/11 06:42:48;;;;;;;103.22;87.13;;;15.70;99.90;;;;;;5052513;28;20045;-72
2022/10/11 06:45:16;;;;;;;103.05;85.15;;;15.70;99.90;;;;;;5053283;28;20072;-72
2022/10/11 06:47:43;;;;;;;111.07;87.15;;;15.70;99.90;;;;;;5044855;28;20071;-72
2022/10/11 06:50:12;;;;;;;108.78;87.97;;;15.70;99.90;;;;;;5044153;28;20041;-71
2022/10/11 06:52:39;;;;;;;112.78;87.55;;;15.80;99.90;;;;;;5033275;28;20034;-72
2022/10/11 06:55:08;;;;;;;114.28;88.68;;;15.80;99.90;;;;;;5051809;28;20040;-72
2022/10/11 06:57:35;;;;;;;109.72;86.63;;;15.90;99.90;;;;;;5053277;28;20396;-71
2022/10/11 07:00:03;;;;;;;107.10;88.65;;;15.90;99.90;;;;;;5053112;28;20053;-71
2022/10/11 07:02:30;;;;;;;116.15;88.82;;;16.00;99.90;;;;;;5052581;28;20052;-71
2022/10/11 07:04:58;;;;;;;124.15;88.05;;;16.00;99.90;;;;;;5053208;28;20136;-72
2022/10/11 07:07:26;;;;;;;113.25;86.88;;;16.10;99.90;;;;;;5052914;28;20189;-71
2022/10/11 07:09:54;;;;;;;116.90;90.35;;;16.10;99.90;;;;;;5052779;28;20575;-72
2022/10/11 07:12:21;;;;;;;119.13;90.80;;;16.00;99.90;;;;;;5052834;28;20548;-72
2022/10/11 07:14:48;;;;;;;140.13;93.95;;;16.00;99.90;;;;;;5051450;28;20045;-71
2022/10/11 07:17:16;;;;;;;124.82;92.95;;;16.00;99.90;;;;;;5052877;28;20045;-72
2022/10/11 07:19:43;;;;;;;109.10;86.97;;;16.10;99.90;;;;;;5051554;28;20053;-72
2022/10/11 07:22:10;;;;;;;116.85;88.88;;;16.20;99.90;;;;;;5052094;28;20037;-73
2022/10/11 07:24:39;;;;;;;110.45;89.00;;;16.20;99.90;;;;;;5052628;28;20064;-72
2022/10/11 07:27:06;;;;;;;111.30;89.35;;;16.20;99.90;;;;;;5042164;28;20041;-73
2022/10/11 07:29:36;;;;;;;120.82;92.57;;;16.20;99.90;;;;;;5048366;28;20038;-74
2022/10/11 07:32:04;;;;;;;114.57;90.97;;;16.20;99.90;;;;;;5052816;28;20111;-74
2022/10/11 07:34:31;;;;;;;115.35;87.80;;;16.30;99.90;;;;;;5031693;28;20401;-74
2022/10/11 07:36:59;;;;;;;119.20;91.63;;;16.30;99.90;;;;;;5032756;28;20049;-74
2022/10/11 07:39:26;;;;;;;123.10;98.53;;;16.30;99.90;;;;;;5032788;28;20045;-74
2022/10/11 07:41:55;;;;;;;131.77;102.15;;;16.30;99.90;;;;;;5032665;28;20046;-75
2022/10/11 07:44:22;;;;;;;131.55;104.18;;;16.30;99.90;;;;;;5032502;28;20037;-74
2022/10/11 07:46:49;;;;;;;129.80;98.68;;;16.30;99.90;;;;;;5031392;28;20050;-74
2022/10/11 07:49:17;;;;;;;129.23;99.28;;;16.30;99.90;;;;;;5048554;28;20048;-74
2022/10/11 07:51:45;;;;;;;134.55;102.80;;;16.40;99.90;;;;;;5032530;28;20169;-74
2022/10/11 07:54:13;;;;;;;131.98;99.53;;;16.40;99.90;;;;;;5043624;28;20098;-74
2022/10/11 07:56:40;;;;;;;133.95;97.97;;;16.40;99.90;;;;;;5052285;28;20053;-74
2022/10/11 07:59:10;;;;;;;135.48;99.50;;;16.50;99.90;;;;;;5052603;28;20045;-78
2022/10/11 08:01:38;;;;;;;143.77;102.00;;;16.50;99.90;;;;;;5052484;28;20041;-74
2022/10/11 08:04:05;;;;;;;147.05;98.85;;;16.70;99.90;;;;;;5052065;28;20120;-74
2022/10/11 08:06:32;;;;;;;146.52;99.28;;;16.70;99.90;;;;;;5052126;28;20120;-74
2022/10/11 08:09:01;;;;;;;136.30;97.22;;;16.80;99.90;;;;;;5052005;28;20400;-74
2022/10/11 08:11:30;;;;;;;142.10;97.43;;;16.90;99.90;;;;;;5049220;28;20048;-74
2022/10/11 08:13:58;;;;;;;139.93;95.60;;;16.90;99.90;;;;;;5047781;28;20455;-75
2022/10/11 08:16:27;;;;;;;129.27;94.88;;;17.00;99.90;;;;;;5041230;28;20501;-75
2022/10/11 08:18:55;;;;;;;135.75;91.53;;;17.00;99.90;;;;;;5048618;28;20053;-74
2022/10/11 08:21:23;;;;;;;121.88;90.47;;;17.10;99.90;;;;;;5033221;28;20034;-74
2022/10/11 08:23:50;;;;;;;123.57;91.63;;;17.10;99.90;;;;;;5031958;28;20124;-74
2022/10/11 08:26:18;;;;;;;128.20;93.75;;;17.10;99.90;;;;;;5032477;28;20096;-74
2022/10/11 08:28:45;;;;;;;129.63;95.40;;;17.10;99.90;;;;;;5032220;28;20046;-74
2022/10/11 08:31:14;;;;;;;127.88;93.20;;;17.10;99.90;;;;;;5032562;28;20049;-75
2022/10/11 08:33:43;;;;;;;122.10;95.20;;;17.20;99.90;;;;;;5032170;28;20041;-74
2022/10/11 08:36:12;;;;;;;130.13;96.93;;;17.20;99.90;;;;;;5032438;28;20103;-75
2022/10/11 08:38:40;;;;;;;137.88;98.05;;;17.30;99.90;;;;;;5045978;28;20095;-75
2022/10/11 08:41:28;;;;;;;128.13;99.53;;;17.30;99.90;;;;;;5052794;28;20075;-75
2022/10/11 08:44:03;;;;;;;135.68;97.50;;;17.40;99.90;;;;;;5055623;28;20043;-75
2022/10/11 08:46:33;;;;;;;128.00;98.13;;;17.50;99.90;;;;;;5055692;28;20084;-75
2022/10/11 08:49:03;;;;;;;133.27;101.28;;;17.50;99.90;;;;;;5052404;28;20334;-75
2022/10/11 08:51:33;;;;;;;130.70;97.75;;;17.40;99.90;;;;;;5048175;28;20041;-75
2022/10/11 08:54:06;;;;;;;132.80;97.65;;;17.40;99.90;;;;;;5055327;28;20056;-74
2022/10/11 08:56:37;;;;;;;118.05;89.32;;;17.40;99.90;;;;;;5054712;28;20051;-74
2022/10/11 08:59:14;;;;;;;120.93;89.53;;;17.50;99.90;;;;;;5055334;28;20041;-75
2022/10/11 09:01:47;;;;;;;122.43;89.50;;;17.40;99.90;;;;;;5054186;28;20045;-75
2022/10/11 09:04:17;;;;;;;124.57;93.60;;;17.40;99.90;;;;;;5055028;28;20455;-74
2022/10/11 09:06:54;;;;;;;117.85;91.35;;;17.50;99.90;;;;;;5053617;28;20106;-75
2022/10/11 09:09:39;;;;;;;128.88;94.78;;;17.50;99.90;;;;;;5054895;28;20090;-75
2022/10/11 09:12:14;;;;;;;131.45;98.38;;;17.40;99.90;;;;;;5053582;28;20037;-74
2022/10/11 09:15:09;;;;;;;134.80;96.50;;;17.30;99.90;;;;;;5035480;28;20560;-75
2022/10/11 09:17:51;;;;;;;124.88;93.20;;;17.30;99.90;;;;;;5035747;28;20037;-75
2022/10/11 09:20:36;;;;;;;125.20;94.00;;;17.30;99.90;;;;;;5036195;28;20041;-75
2022/10/11 09:23:10;;;;;;;127.97;95.40;;;17.40;99.90;;;;;;5035661;28;20049;-74
2022/10/11 09:25:49;;;;;;;122.60;95.38;;;17.40;99.90;;;;;;5047315;28;20049;-76
2022/10/11 09:28:24;;;;;;;125.72;93.97;;;17.30;99.90;;;;;;5054081;28;20053;-75
2022/10/11 09:30:56;;;;;;;127.20;94.47;;;17.40;99.90;;;;;;5055045;28;20055;-75
2022/10/11 09:33:32;;;;;;;130.15;94.85;;;17.40;99.90;;;;;;5054770;28;20041;-74
2022/10/11 09:36:01;;;;;;;;;;;17.30;99.90;;;;;;5053915;28;20049;-75
2022/10/11 09:38:38;;;;;;;118.28;87.78;;;17.30;99.90;;;;;;5055020;28;19928;-75
2022/10/11 09:41:14;;;;;;;123.05;92.15;;;17.40;99.90;;;;;;5053732;28;20045;-75
2022/10/11 09:43:47;;;;;;;118.82;89.85;;;17.50;99.90;;;;;;5054413;28;20037;-75
2022/10/11 09:46:24;;;;;;;122.78;93.95;;;17.60;99.90;;;;;;5054294;28;20049;-75
2022/10/11 09:48:53;;;;;;;121.60;93.35;;;17.60;99.90;;;;;;5051546;28;20037;-74
2022/10/11 09:51:23;;;;;;;128.05;95.18;;;17.60;99.90;;;;;;5034740;28;20045;-75
2022/10/11 09:53:57;;;;;;;131.43;93.60;;;17.50;99.90;;;;;;5041855;28;20072;-75
2022/10/11 09:56:26;;;;;;;124.63;91.50;;;17.50;99.90;;;;;;5053932;28;20061;-74
2022/10/11 09:59:27;;;;;;;126.53;96.28;;;17.60;99.90;;;;;;5054338;28;20072;-74
2022/10/11 10:02:20;;;;;;;122.60;90.57;;;17.60;99.90;;;;;;5054471;28;20489;-75
2022/10/11 10:05:02;;;;;;;121.65;92.78;;;17.60;99.90;;;;;;5053895;28;20068;-74
2022/10/11 10:07:35;;;;;;;122.32;90.60;;;17.60;99.90;;;;;;5054194;28;20049;-74
2022/10/11 10:10:27;;;;;;;104.38;82.28;;;17.60;99.90;;;;;;5052696;28;20049;-74
2022/10/11 10:12:55;;;;;;;101.05;78.10;;;17.70;99.90;;;;;;5068291;22;20054;-71
2022/10/11 10:15:26;;;;;;;96.80;76.97;;;17.60;99.90;;;;;;5043484;28;20033;-71
2022/10/11 10:17:53;;;;;;;96.10;80.38;;;17.70;99.90;;;;;;5035617;28;20087;-71
2022/10/11 10:20:23;;;;;;;87.97;73.60;;;17.70;99.90;;;;;;5038076;28;20049;-72
2022/10/11 10:22:52;;;;;;;86.60;70.45;;;17.70;99.90;;;;;;5033828;28;20480;-70
2022/10/11 10:25:24;;;;;;;81.93;70.38;;;17.70;99.90;;;;;;5035834;28;20053;-70
2022/10/11 10:28:02;;;;;;;89.50;74.35;;;17.70;99.90;;;;;;5033844;28;20045;-70
2022/10/11 10:30:30;;;;;;;85.57;71.47;;;17.70;99.90;;;;;;5034360;28;20056;-71
2022/10/11 10:33:02;;;;;;;95.43;76.40;;;17.70;99.90;;;;;;5033463;28;20045;-70
2022/10/11 10:35:36;;;;;;;87.65;74.55;;;17.80;99.90;;;;;;5036302;28;20116;-72
2022/10/11 10:38:14;;;;;;;112.40;86.40;;;17.80;99.90;;;;;;5036851;28;20061;-72
2022/10/11 10:40:45;;;;;;;110.50;88.07;;;17.80;99.90;;;;;;5031808;28;20480;-70
2022/10/11 10:43:18;;;;;;;122.65;93.88;;;17.80;99.90;;;;;;5033286;28;20049;-70
2022/10/11 10:46:09;;;;;;;112.63;92.03;;;17.80;99.90;;;;;;5031577;28;20053;-72
2022/10/11 10:48:44;;;;;;;115.38;91.18;;;17.80;99.90;;;;;;5029138;28;20111;-70
2022/10/11 10:51:21;;;;;;;104.32;83.60;;;17.80;99.90;;;;;;5033422;28;20042;-70
2022/10/11 10:53:54;;;;;;;117.85;88.32;;;17.80;99.90;;;;;;5043095;28;20037;-70
2022/10/11 10:56:29;;;;;;;117.15;90.90;;;17.70;99.90;;;;;;5055217;28;20049;-71
2022/10/11 10:59:06;;;;;;;115.70;89.30;;;17.60;99.90;;;;;;5035373;28;20050;-71
2022/10/11 11:01:37;;;;;;;114.25;84.95;;;17.60;99.90;;;;;;5027055;28;20493;-71
2022/10/11 11:04:13;;;;;;;99.30;81.40;;;17.60;99.90;;;;;;5026965;28;20038;-70
2022/10/11 11:06:47;;;;;;;96.07;79.13;;;17.70;99.90;;;;;;5034770;28;20049;-71
2022/10/11 11:09:29;;;;;;;107.70;77.43;;;17.70;99.90;;;;;;5034646;28;20042;-72
2022/10/11 11:12:11;;;;;;;92.97;75.45;;;17.80;99.90;;;;;;5043318;28;20061;-72
2022/10/11 11:14:46;;;;;;;96.90;77.28;;;17.80;99.90;;;;;;5033614;28;20038;-71
2022/10/11 11:17:24;;;;;;;97.07;76.57;;;17.90;99.90;;;;;;5034142;28;20040;-71
2022/10/11 11:20:08;;;;;;;95.30;78.80;;;17.90;99.90;;;;;;5035335;28;20083;-73
2022/10/11 11:22:45;;;;;;;94.20;79.20;;;17.90;99.90;;;;;;5036102;28;20048;-71
2022/10/11 11:25:27;;;;;;;98.70;78.65;;;17.90;99.90;;;;;;5036028;28;20052;-72
2022/10/11 11:28:11;;;;;;;103.50;81.95;;;17.90;99.90;;;;;;5042830;28;20056;-71
2022/10/11 11:30:48;;;;;;;98.35;77.00;;;18.00;99.90;;;;;;5048834;28;20144;-71
2022/10/11 11:33:27;;;;;;;98.15;78.03;;;17.90;99.90;;;;;;5051000;28;20038;-70
2022/10/11 11:35:59;;;;;;;97.45;78.10;;;17.90;99.90;;;;;;5053994;28;20045;-71
2022/10/11 11:38:34;;;;;;;99.20;81.85;;;17.90;99.90;;;;;;5055485;28;20100;-72
2022/10/11 11:41:08;;;;;;;102.10;82.38;;;17.90;99.90;;;;;;5052206;28;20045;-70
2022/10/11 11:43:39;;;;;;;101.22;80.95;;;17.90;99.90;;;;;;5049283;28;20046;-71
2022/10/11 11:46:12;;;;;;;90.82;77.07;;;17.90;99.90;;;;;;5049294;28;20041;-71
2022/10/11 11:48:40;;;;;;;103.20;79.55;;;18.00;99.90;;;;;;5044528;28;20497;-70
2022/10/11 11:51:14;;;;;;;90.50;69.72;;;18.10;99.90;;;;;;5046694;28;20777;-69
2022/10/11 11:53:51;;;;;;;82.68;63.20;;;18.30;99.90;;;;;;5046332;28;20047;-69
2022/10/11 11:56:29;;;;;;;61.63;52.75;;;18.40;99.90;;;;;;5069222;28;20057;-69
2022/10/11 11:59:06;;;;;;;61.88;52.03;;;18.60;99.90;;;;;;5060251;28;20044;-70
2022/10/11 12:01:40;;;;;;;55.05;47.20;;;18.60;99.90;;;;;;5041696;28;20053;-70
2022/10/11 12:04:15;;;;;;;68.25;48.53;;;18.70;99.90;;;;;;5046011;28;20046;-70
2022/10/11 12:06:43;;;;;;;52.20;46.55;;;18.90;99.90;;;;;;5037675;28;20075;-70
2022/10/11 12:09:22;;;;;;;56.92;46.88;;;18.90;99.90;;;;;;5037043;28;20049;-70
2022/10/11 12:11:55;;;;;;;53.35;44.13;;;19.00;99.90;;;;;;5040282;28;20504;-71
2022/10/11 12:14:34;;;;;;;52.05;44.15;;;19.10;99.90;;;;;;5039198;28;20044;-70
2022/10/11 12:17:17;;;;;;;52.72;45.75;;;19.20;99.90;;;;;;5036795;28;20463;-70
2022/10/11 12:20:03;;;;;;;49.50;44.03;;;19.30;99.90;;;;;;5040172;28;20052;-70
2022/10/11 12:22:41;;;;;;;47.53;42.08;;;19.40;99.90;;;;;;5042843;28;20045;-71
2022/10/11 12:25:33;;;;;;;56.35;45.45;;;19.50;99.90;;;;;;5041747;28;20091;-70
2022/10/11 12:28:22;;;;;;;45.65;40.75;;;19.50;99.90;;;;;;5041916;28;20049;-70
2022/10/11 12:30:53;;;;;;;50.15;44.80;;;19.40;99.90;;;;;;5039585;28;20045;-72
2022/10/11 12:33:23;;;;;;;123.32;53.78;;;19.40;99.90;;;;;;5042920;28;20048;-70
2022/10/11 12:36:00;;;;;;;46.83;41.78;;;19.50;99.90;;;;;;5043628;28;20049;-71
2022/10/11 12:38:31;;;;;;;54.35;44.22;;;19.40;99.90;;;;;;5042773;28;20481;-70
2022/10/11 12:41:19;;;;;;;48.92;41.35;;;19.40;99.90;;;;;;5041466;28;20136;-70
2022/10/11 12:44:13;;;;;;;49.88;41.88;;;19.50;99.90;;;;;;5042987;28;20041;-70